createdAt,value
2017-10-02T00:00:08.326Z,945.8
2017-10-02T00:01:16.419Z,945.8
2017-10-02T00:02:24.626Z,945.8
2017-10-02T00:03:32.602Z,945.8
2017-10-02T00:04:40.678Z,945.8
2017-10-02T00:05:48.766Z,945.8
2017-10-02T00:06:56.851Z,945.8
2017-10-02T00:08:05.090Z,945.7
2017-10-02T00:09:13.026Z,945.7
2017-10-02T00:10:21.179Z,945.8
2017-10-02T00:11:29.211Z,945.8
2017-10-02T00:12:37.486Z,945.8
2017-10-02T00:13:45.507Z,945.8
2017-10-02T00:14:53.473Z,945.9
2017-10-02T00:16:01.562Z,945.9
2017-10-02T00:17:09.651Z,945.9
2017-10-02T00:18:17.743Z,945.9
2017-10-02T00:19:25.881Z,945.9
2017-10-02T00:20:33.913Z,945.9
2017-10-02T00:21:42.070Z,945.9
2017-10-02T00:22:50.368Z,946.0
2017-10-02T00:23:58.454Z,945.9
2017-10-02T00:25:06.631Z,945.9
2017-10-02T00:26:14.751Z,945.8
2017-10-02T00:27:22.717Z,945.8
2017-10-02T00:28:30.825Z,945.8
2017-10-02T00:29:39.017Z,945.8
2017-10-02T00:30:47.056Z,945.8
2017-10-02T00:31:55.088Z,945.8
2017-10-02T00:33:03.175Z,945.9
2017-10-02T00:34:11.352Z,945.8
2017-10-02T00:35:19.349Z,945.8
2017-10-02T00:36:27.493Z,945.8
2017-10-02T00:37:35.524Z,945.8
2017-10-02T00:38:43.808Z,945.9
2017-10-02T00:39:51.700Z,945.9
2017-10-02T00:40:59.793Z,945.9
2017-10-02T00:42:07.997Z,945.9
2017-10-02T00:43:15.960Z,945.9
2017-10-02T00:44:24.049Z,945.9
2017-10-02T00:45:32.135Z,945.9
2017-10-02T00:46:40.221Z,945.9
2017-10-02T00:47:48.550Z,945.9
2017-10-02T00:48:56.526Z,945.9
2017-10-02T00:50:04.484Z,945.9
2017-10-02T00:51:12.592Z,945.9
2017-10-02T00:52:20.835Z,945.9
2017-10-02T00:53:28.823Z,945.9
2017-10-02T00:54:36.855Z,946.0
2017-10-02T00:55:44.941Z,946.0
2017-10-02T00:56:53.058Z,945.9
2017-10-02T00:58:01.238Z,945.9
2017-10-02T00:59:09.266Z,945.9
2017-10-02T01:00:17.290Z,945.9
2017-10-02T01:01:25.505Z,945.9
2017-10-02T01:02:33.471Z,945.9
2017-10-02T01:03:41.554Z,945.9
2017-10-02T01:04:49.697Z,945.9
2017-10-02T01:05:57.730Z,945.9
2017-10-02T01:07:05.816Z,945.9
2017-10-02T01:08:13.903Z,945.8
2017-10-02T01:09:21.990Z,945.9
2017-10-02T01:10:30.222Z,945.9
2017-10-02T01:11:38.164Z,945.9
2017-10-02T01:12:46.251Z,945.9
2017-10-02T01:13:54.395Z,945.9
2017-10-02T01:15:02.560Z,945.9
2017-10-02T01:16:10.572Z,945.8
2017-10-02T01:17:18.604Z,945.9
2017-10-02T01:18:26.693Z,945.9
2017-10-02T01:19:34.777Z,945.8
2017-10-02T01:20:42.863Z,945.9
2017-10-02T01:21:51.010Z,945.9
2017-10-02T01:22:59.042Z,945.9
2017-10-02T01:24:07.129Z,945.9
2017-10-02T01:25:15.255Z,945.9
2017-10-02T01:26:23.304Z,946.0
2017-10-02T01:27:31.514Z,946.0
2017-10-02T01:28:39.479Z,945.9
2017-10-02T01:29:47.622Z,946.0
2017-10-02T01:30:55.650Z,945.9
2017-10-02T01:32:03.741Z,945.9
2017-10-02T01:33:11.882Z,945.9
2017-10-02T01:34:19.933Z,945.9
2017-10-02T01:35:28.013Z,945.8
2017-10-02T01:36:36.099Z,945.8
2017-10-02T01:37:44.188Z,945.8
2017-10-02T01:38:52.397Z,945.8
2017-10-02T01:40:00.480Z,945.8
2017-10-02T01:41:08.450Z,945.8
2017-10-02T01:42:16.537Z,945.8
2017-10-02T01:43:24.628Z,945.8
2017-10-02T01:44:32.768Z,945.8
2017-10-02T01:45:40.877Z,945.8
2017-10-02T01:46:48.906Z,945.7
2017-10-02T01:47:57.058Z,945.7
2017-10-02T01:49:05.080Z,945.7
2017-10-02T01:50:13.288Z,945.6
2017-10-02T01:51:21.265Z,945.6
2017-10-02T01:52:29.353Z,945.6
2017-10-02T01:53:37.441Z,945.6
2017-10-02T01:54:45.525Z,945.5
2017-10-02T01:55:53.676Z,945.5
2017-10-02T01:57:01.874Z,945.5
2017-10-02T01:58:09.793Z,945.5
2017-10-02T01:59:17.880Z,945.5
2017-10-02T02:00:25.966Z,945.5
2017-10-02T02:01:34.109Z,945.5
2017-10-02T02:02:42.141Z,945.5
2017-10-02T02:03:50.226Z,945.5
2017-10-02T02:04:58.315Z,945.5
2017-10-02T02:06:06.531Z,945.5
2017-10-02T02:07:14.546Z,945.4
2017-10-02T02:08:22.577Z,945.4
2017-10-02T02:09:30.662Z,945.4
2017-10-02T02:10:38.751Z,945.4
2017-10-02T02:11:46.836Z,945.4
2017-10-02T02:12:55.044Z,945.4
2017-10-02T02:14:03.011Z,945.4
2017-10-02T02:15:11.099Z,945.4
2017-10-02T02:16:19.185Z,945.3
2017-10-02T02:17:27.328Z,945.4
2017-10-02T02:18:35.583Z,945.4
2017-10-02T02:19:43.558Z,945.4
2017-10-02T02:20:51.531Z,945.4
2017-10-02T02:21:59.627Z,945.4
2017-10-02T02:23:08.285Z,945.4
2017-10-02T02:24:16.021Z,945.4
2017-10-02T02:25:23.889Z,945.4
2017-10-02T02:26:31.974Z,945.4
2017-10-02T02:27:40.061Z,945.4
2017-10-02T02:28:48.246Z,945.3
2017-10-02T02:29:56.290Z,945.3
2017-10-02T02:31:04.321Z,945.3
2017-10-02T02:32:12.410Z,945.3
2017-10-02T02:33:20.627Z,945.3
2017-10-02T02:34:28.582Z,945.3
2017-10-02T02:35:36.726Z,945.3
2017-10-02T02:36:44.755Z,945.3
2017-10-02T02:37:52.943Z,945.2
2017-10-02T02:39:00.928Z,945.2
2017-10-02T02:40:09.017Z,945.3
2017-10-02T02:41:17.221Z,945.3
2017-10-02T02:42:25.191Z,945.2
2017-10-02T02:43:33.275Z,945.2
2017-10-02T02:44:41.364Z,945.3
2017-10-02T02:45:49.449Z,945.2
2017-10-02T02:46:57.591Z,945.3
2017-10-02T02:48:05.621Z,945.3
2017-10-02T02:49:13.766Z,945.3
2017-10-02T02:50:21.796Z,945.3
2017-10-02T02:51:30.059Z,945.3
2017-10-02T02:52:38.105Z,945.4
2017-10-02T02:53:46.073Z,945.4
2017-10-02T02:54:54.161Z,945.4
2017-10-02T02:56:02.248Z,945.4
2017-10-02T02:57:10.490Z,945.4
2017-10-02T02:58:18.478Z,945.4
2017-10-02T02:59:26.520Z,945.4
2017-10-02T03:00:34.612Z,945.4
2017-10-02T03:01:42.705Z,945.4
2017-10-02T03:02:50.787Z,945.4
2017-10-02T03:03:58.994Z,945.3
2017-10-02T03:05:07.019Z,945.3
2017-10-02T03:06:15.047Z,945.3
2017-10-02T03:07:23.134Z,945.4
2017-10-02T03:08:31.219Z,945.3
2017-10-02T03:09:39.363Z,945.3
2017-10-02T03:10:47.465Z,945.3
2017-10-02T03:11:55.484Z,945.3
2017-10-02T03:13:03.570Z,945.3
2017-10-02T03:14:11.691Z,945.3
2017-10-02T03:15:19.831Z,945.3
2017-10-02T03:16:27.863Z,945.3
2017-10-02T03:17:35.957Z,945.3
2017-10-02T03:18:44.045Z,945.3
2017-10-02T03:19:52.132Z,945.3
2017-10-02T03:21:00.340Z,945.3
2017-10-02T03:22:08.306Z,945.3
2017-10-02T03:23:16.393Z,945.3
2017-10-02T03:24:24.486Z,945.3
2017-10-02T03:25:32.566Z,945.3
2017-10-02T03:26:40.705Z,945.3
2017-10-02T03:27:48.748Z,945.3
2017-10-02T03:28:56.837Z,945.3
2017-10-02T03:30:04.922Z,945.4
2017-10-02T03:31:13.027Z,945.4
2017-10-02T03:32:21.231Z,945.3
2017-10-02T03:33:29.287Z,945.4
2017-10-02T03:34:37.284Z,945.3
2017-10-02T03:35:45.371Z,945.3
2017-10-02T03:36:53.516Z,945.3
2017-10-02T03:38:01.601Z,945.3
2017-10-02T03:39:09.630Z,945.3
2017-10-02T03:40:17.717Z,945.3
2017-10-02T03:41:25.804Z,945.3
2017-10-02T03:42:33.890Z,945.3
2017-10-02T03:43:42.097Z,945.3
2017-10-02T03:44:50.063Z,945.3
2017-10-02T03:45:58.149Z,945.3
2017-10-02T03:47:06.244Z,945.3
2017-10-02T03:48:14.328Z,945.3
2017-10-02T03:49:22.471Z,945.3
2017-10-02T03:50:30.503Z,945.3
2017-10-02T03:51:38.630Z,945.3
2017-10-02T03:52:46.732Z,945.3
2017-10-02T03:53:54.763Z,945.2
2017-10-02T03:55:02.969Z,945.2
2017-10-02T03:56:11.108Z,945.2
2017-10-02T03:57:19.195Z,945.3
2017-10-02T03:58:27.282Z,945.3
2017-10-02T03:59:35.417Z,945.2
2017-10-02T04:00:43.512Z,945.2
2017-10-02T04:01:51.541Z,945.3
2017-10-02T04:02:59.629Z,945.3
2017-10-02T04:04:07.713Z,945.3
2017-10-02T04:05:15.798Z,945.3
2017-10-02T04:06:24.005Z,945.3
2017-10-02T04:07:31.970Z,945.3
2017-10-02T04:08:40.113Z,945.3
2017-10-02T04:09:48.146Z,945.3
2017-10-02T04:10:56.239Z,945.3
2017-10-02T04:12:04.375Z,945.3
2017-10-02T04:13:12.402Z,945.3
2017-10-02T04:14:20.499Z,945.3
2017-10-02T04:15:28.585Z,945.3
2017-10-02T04:16:36.671Z,945.3
2017-10-02T04:17:44.878Z,945.3
2017-10-02T04:18:52.998Z,945.3
2017-10-02T04:20:00.932Z,945.3
2017-10-02T04:21:09.018Z,945.3
2017-10-02T04:22:17.105Z,945.2
2017-10-02T04:23:25.247Z,945.2
2017-10-02T04:24:33.330Z,945.2
2017-10-02T04:25:41.367Z,945.2
2017-10-02T04:26:49.447Z,945.2
2017-10-02T04:27:57.534Z,945.2
2017-10-02T04:29:05.742Z,945.2
2017-10-02T04:30:13.707Z,945.2
2017-10-02T04:31:21.795Z,945.2
2017-10-02T04:32:29.880Z,945.2
2017-10-02T04:33:37.966Z,945.2
2017-10-02T04:34:46.107Z,945.2
2017-10-02T04:35:54.137Z,945.2
2017-10-02T04:37:02.226Z,945.2
2017-10-02T04:38:10.311Z,945.1
2017-10-02T04:39:18.396Z,945.2
2017-10-02T04:40:26.603Z,945.2
2017-10-02T04:41:34.570Z,945.2
2017-10-02T04:42:42.656Z,945.2
2017-10-02T04:43:50.743Z,945.3
2017-10-02T04:44:58.827Z,945.3
2017-10-02T04:46:07.010Z,945.3
2017-10-02T04:47:15.002Z,945.3
2017-10-02T04:48:23.086Z,945.3
2017-10-02T04:49:31.173Z,945.2
2017-10-02T04:50:39.300Z,945.2
2017-10-02T04:51:47.402Z,945.2
2017-10-02T04:52:55.431Z,945.2
2017-10-02T04:54:03.517Z,945.1
2017-10-02T04:55:11.602Z,945.2
2017-10-02T04:56:19.812Z,945.1
2017-10-02T04:57:27.832Z,945.1
2017-10-02T04:58:35.864Z,945.1
2017-10-02T04:59:43.948Z,945.1
2017-10-02T05:00:52.033Z,945.2
2017-10-02T05:02:00.121Z,945.1
2017-10-02T05:03:08.261Z,945.1
2017-10-02T05:04:16.292Z,945.2
2017-10-02T05:05:24.375Z,945.2
2017-10-02T05:06:32.464Z,945.2
2017-10-02T05:07:40.550Z,945.2
2017-10-02T05:08:48.758Z,945.2
2017-10-02T05:09:56.740Z,945.2
2017-10-02T05:11:04.809Z,945.3
2017-10-02T05:12:12.952Z,945.2
2017-10-02T05:13:20.981Z,945.2
2017-10-02T05:14:29.127Z,945.2
2017-10-02T05:15:37.151Z,945.3
2017-10-02T05:16:45.249Z,945.2
2017-10-02T05:17:53.527Z,945.2
2017-10-02T05:19:01.412Z,945.3
2017-10-02T05:20:09.554Z,945.2
2017-10-02T05:21:17.583Z,945.2
2017-10-02T05:22:25.867Z,945.3
2017-10-02T05:23:33.764Z,945.3
2017-10-02T05:24:41.848Z,945.3
2017-10-02T05:25:49.993Z,945.3
2017-10-02T05:26:58.021Z,945.3
2017-10-02T05:28:06.300Z,945.3
2017-10-02T05:29:14.194Z,945.3
2017-10-02T05:30:22.281Z,945.3
2017-10-02T05:31:30.433Z,945.2
2017-10-02T05:32:38.463Z,945.3
2017-10-02T05:33:46.565Z,945.2
2017-10-02T05:34:54.636Z,945.3
2017-10-02T05:36:02.721Z,945.2
2017-10-02T05:37:10.896Z,945.2
2017-10-02T05:38:18.896Z,945.3
2017-10-02T05:39:26.989Z,945.2
2017-10-02T05:40:35.076Z,945.2
2017-10-02T05:41:43.171Z,945.3
2017-10-02T05:42:51.302Z,945.3
2017-10-02T05:43:59.390Z,945.3
2017-10-02T05:45:07.594Z,945.4
2017-10-02T05:46:15.507Z,945.3
2017-10-02T05:47:23.592Z,945.4
2017-10-02T05:48:31.799Z,945.4
2017-10-02T05:49:39.769Z,945.4
2017-10-02T05:50:47.854Z,945.4
2017-10-02T05:51:55.936Z,945.4
2017-10-02T05:53:04.023Z,945.4
2017-10-02T05:54:12.170Z,945.4
2017-10-02T05:55:20.309Z,945.4
2017-10-02T05:56:28.282Z,945.5
2017-10-02T05:57:36.366Z,945.4
2017-10-02T05:58:44.467Z,945.5
2017-10-02T05:59:52.611Z,945.5
2017-10-02T06:01:00.639Z,945.5
2017-10-02T06:02:08.726Z,945.4
2017-10-02T06:03:16.818Z,945.5
2017-10-02T06:04:25.027Z,945.4
2017-10-02T06:05:33.105Z,945.5
2017-10-02T06:06:41.080Z,945.5
2017-10-02T06:07:49.167Z,945.5
2017-10-02T06:08:57.358Z,945.5
2017-10-02T06:10:05.345Z,945.5
2017-10-02T06:11:13.485Z,945.5
2017-10-02T06:12:21.519Z,945.5
2017-10-02T06:13:29.818Z,945.5
2017-10-02T06:14:37.693Z,945.5
2017-10-02T06:15:45.907Z,945.5
2017-10-02T06:16:53.921Z,945.5
2017-10-02T06:18:01.950Z,945.4
2017-10-02T06:19:10.037Z,945.5
2017-10-02T06:20:18.124Z,945.5
2017-10-02T06:21:26.209Z,945.5
2017-10-02T06:22:36.256Z,945.4
2017-10-02T06:23:42.380Z,945.5
2017-10-02T06:24:50.467Z,945.5
2017-10-02T06:25:58.553Z,945.5
2017-10-02T06:27:06.841Z,945.5
2017-10-02T06:28:14.781Z,945.5
2017-10-02T06:29:22.811Z,945.5
2017-10-02T06:30:30.898Z,945.5
2017-10-02T06:31:40.611Z,945.5
2017-10-02T06:32:47.109Z,945.5
2017-10-02T06:33:55.215Z,945.4
2017-10-02T06:35:03.244Z,945.4
2017-10-02T06:36:11.330Z,945.4
2017-10-02T06:37:19.453Z,945.3
2017-10-02T06:38:27.711Z,945.3
2017-10-02T06:39:35.653Z,945.4
2017-10-02T06:40:43.680Z,945.3
2017-10-02T06:41:51.802Z,945.3
2017-10-02T06:42:59.852Z,945.3
2017-10-02T06:44:07.938Z,945.4
2017-10-02T06:45:16.080Z,945.4
2017-10-02T06:46:24.158Z,945.4
2017-10-02T06:47:32.319Z,945.4
2017-10-02T06:48:40.304Z,945.4
2017-10-02T06:49:48.368Z,945.4
2017-10-02T06:50:56.664Z,945.4
2017-10-02T06:52:04.541Z,945.5
2017-10-02T06:53:12.628Z,945.5
2017-10-02T06:54:20.716Z,945.5
2017-10-02T06:55:28.958Z,945.5
2017-10-02T06:56:36.941Z,945.5
2017-10-02T06:57:44.970Z,945.5
2017-10-02T06:58:53.064Z,945.5
2017-10-02T07:00:01.288Z,945.5
2017-10-02T07:01:09.239Z,945.4
2017-10-02T07:02:17.445Z,945.4
2017-10-02T07:03:25.468Z,945.5
2017-10-02T07:04:33.497Z,945.4
2017-10-02T07:05:41.581Z,945.5
2017-10-02T07:06:49.666Z,945.5
2017-10-02T07:07:57.809Z,945.5
2017-10-02T07:09:05.892Z,945.5
2017-10-02T07:10:13.925Z,945.5
2017-10-02T07:11:22.011Z,945.6
2017-10-02T07:12:30.102Z,945.6
2017-10-02T07:13:38.458Z,945.6
2017-10-02T07:14:46.368Z,945.6
2017-10-02T07:15:54.359Z,945.6
2017-10-02T07:17:02.443Z,945.6
2017-10-02T07:18:10.541Z,945.6
2017-10-02T07:19:18.747Z,945.5
2017-10-02T07:20:26.713Z,945.6
2017-10-02T07:21:34.797Z,945.6
2017-10-02T07:22:42.951Z,945.6
2017-10-02T07:23:50.975Z,945.6
2017-10-02T07:24:59.175Z,945.6
2017-10-02T07:26:07.142Z,945.6
2017-10-02T07:27:15.226Z,945.6
2017-10-02T07:28:23.338Z,945.6
2017-10-02T07:29:31.400Z,945.6
2017-10-02T07:30:39.543Z,945.6
2017-10-02T07:31:47.572Z,945.6
2017-10-02T07:32:55.657Z,945.6
2017-10-02T07:34:03.767Z,945.6
2017-10-02T07:35:11.888Z,945.6
2017-10-02T07:36:20.039Z,945.6
2017-10-02T07:37:28.127Z,945.6
2017-10-02T07:38:36.091Z,945.6
2017-10-02T07:39:44.174Z,945.5
2017-10-02T07:40:52.257Z,945.6
2017-10-02T07:42:00.421Z,945.6
2017-10-02T07:43:08.443Z,945.6
2017-10-02T07:44:16.532Z,945.6
2017-10-02T07:45:24.632Z,945.6
2017-10-02T07:46:32.704Z,945.6
2017-10-02T07:47:40.914Z,945.6
2017-10-02T07:48:48.883Z,945.7
2017-10-02T07:49:56.967Z,945.7
2017-10-02T07:51:05.197Z,945.6
2017-10-02T07:52:13.142Z,945.7
2017-10-02T07:53:21.285Z,945.6
2017-10-02T07:54:29.313Z,945.7
2017-10-02T07:55:37.477Z,945.6
2017-10-02T07:56:45.571Z,945.7
2017-10-02T07:57:54.179Z,945.7
2017-10-02T07:59:01.950Z,945.7
2017-10-02T08:00:09.972Z,945.7
2017-10-02T08:01:17.866Z,945.7
2017-10-02T08:02:25.986Z,945.7
2017-10-02T08:03:34.049Z,945.7
2017-10-02T08:04:43.084Z,945.7
2017-10-02T08:05:50.219Z,945.7
2017-10-02T08:06:58.706Z,945.7
2017-10-02T08:08:06.389Z,945.7
2017-10-02T08:09:14.476Z,945.7
2017-10-02T08:10:22.616Z,945.7
2017-10-02T08:11:30.649Z,945.7
2017-10-02T08:12:38.734Z,945.7
2017-10-02T08:13:46.977Z,945.7
2017-10-02T08:14:54.926Z,945.8
2017-10-02T08:16:03.076Z,945.9
2017-10-02T08:17:11.088Z,945.8
2017-10-02T08:18:19.173Z,945.8
2017-10-02T08:19:27.379Z,945.8
2017-10-02T08:20:35.355Z,945.9
2017-10-02T08:21:43.551Z,945.9
2017-10-02T08:22:51.876Z,945.9
2017-10-02T08:24:00.058Z,945.8
2017-10-02T08:25:07.706Z,945.8
2017-10-02T08:26:15.840Z,945.8
2017-10-02T08:27:24.004Z,945.8
2017-10-02T08:28:31.947Z,945.8
2017-10-02T08:29:40.090Z,945.7
2017-10-02T08:30:48.356Z,945.7
2017-10-02T08:31:56.202Z,945.7
2017-10-02T08:33:04.548Z,945.7
2017-10-02T08:34:12.608Z,945.7
2017-10-02T08:35:20.458Z,945.7
2017-10-02T08:36:28.544Z,945.8
2017-10-02T08:37:36.631Z,945.7
2017-10-02T08:38:44.846Z,945.7
2017-10-02T08:39:52.816Z,945.7
2017-10-02T08:41:00.895Z,945.7
2017-10-02T08:42:08.981Z,945.7
2017-10-02T08:43:17.066Z,945.7
2017-10-02T08:44:25.274Z,945.7
2017-10-02T08:45:33.241Z,945.8
2017-10-02T08:46:41.327Z,945.7
2017-10-02T08:47:49.542Z,945.7
2017-10-02T08:48:57.496Z,945.7
2017-10-02T08:50:05.702Z,945.7
2017-10-02T08:51:13.682Z,945.7
2017-10-02T08:52:21.759Z,945.7
2017-10-02T08:53:29.839Z,945.7
2017-10-02T08:54:38.048Z,945.7
2017-10-02T08:55:46.130Z,945.7
2017-10-02T08:56:54.099Z,945.6
2017-10-02T08:58:02.186Z,945.7
2017-10-02T08:59:10.271Z,945.7
2017-10-02T09:00:18.538Z,945.7
2017-10-02T09:01:26.503Z,945.7
2017-10-02T09:02:34.526Z,945.6
2017-10-02T09:03:42.736Z,945.6
2017-10-02T09:04:51.273Z,945.6
2017-10-02T09:05:58.780Z,945.6
2017-10-02T09:07:06.950Z,945.6
2017-10-02T09:08:15.640Z,945.6
2017-10-02T09:09:23.741Z,945.6
2017-10-02T09:10:31.866Z,945.6
2017-10-02T09:11:39.896Z,945.6
2017-10-02T09:12:47.982Z,945.6
2017-10-02T09:15:05.071Z,945.6
2017-10-02T09:16:13.156Z,945.6
2017-10-02T09:17:21.363Z,945.6
2017-10-02T09:18:29.436Z,945.6
2017-10-02T09:19:37.412Z,945.6
2017-10-02T09:20:45.503Z,945.6
2017-10-02T09:21:53.982Z,945.6
2017-10-02T09:23:01.796Z,945.6
2017-10-02T09:24:09.761Z,945.7
2017-10-02T09:25:17.847Z,945.6
2017-10-02T09:26:25.987Z,945.6
2017-10-02T09:27:34.017Z,945.6
2017-10-02T09:28:42.161Z,945.7
2017-10-02T09:29:50.189Z,945.6
2017-10-02T09:30:58.284Z,945.7
2017-10-02T09:32:06.393Z,945.7
2017-10-02T09:33:14.446Z,945.7
2017-10-02T09:34:22.653Z,945.7
2017-10-02T09:35:30.616Z,945.7
2017-10-02T09:36:38.712Z,945.7
2017-10-02T09:37:46.797Z,945.7
2017-10-02T09:38:54.876Z,945.7
2017-10-02T09:40:03.016Z,945.7
2017-10-02T09:41:11.046Z,945.8
2017-10-02T09:42:19.237Z,945.8
2017-10-02T09:43:27.264Z,945.8
2017-10-02T09:44:35.351Z,945.8
2017-10-02T09:45:43.557Z,945.8
2017-10-02T09:46:51.541Z,945.8
2017-10-02T09:47:59.806Z,945.8
2017-10-02T09:49:08.426Z,945.8
2017-10-02T09:50:16.060Z,945.9
2017-10-02T09:51:24.121Z,945.8
2017-10-02T09:52:32.150Z,945.8
2017-10-02T09:53:40.236Z,945.8
2017-10-02T09:54:48.355Z,945.8
2017-10-02T09:55:56.407Z,945.8
2017-10-02T09:57:04.612Z,945.8
2017-10-02T09:58:12.697Z,945.6
2017-10-02T09:59:20.695Z,945.7
2017-10-02T10:00:28.749Z,945.7
2017-10-02T10:01:36.836Z,945.7
2017-10-02T10:02:45.043Z,945.7
2017-10-02T10:03:53.121Z,945.7
2017-10-02T10:05:01.195Z,945.7
2017-10-02T10:06:09.185Z,945.7
2017-10-02T10:07:17.410Z,945.6
2017-10-02T10:08:25.516Z,945.6
2017-10-02T10:09:33.434Z,945.6
2017-10-02T10:10:41.527Z,945.6
2017-10-02T10:11:49.619Z,945.6
2017-10-02T10:12:57.695Z,945.5
2017-10-02T10:14:05.907Z,945.6
2017-10-02T10:15:13.887Z,945.6
2017-10-02T10:16:21.987Z,945.5
2017-10-02T10:17:30.053Z,945.4
2017-10-02T10:18:38.151Z,945.4
2017-10-02T10:19:48.628Z,945.4
2017-10-02T10:20:54.552Z,945.5
2017-10-02T10:22:02.693Z,945.5
2017-10-02T10:23:10.783Z,945.4
2017-10-02T10:24:18.798Z,945.5
2017-10-02T10:25:27.128Z,945.5
2017-10-02T10:26:34.969Z,945.5
2017-10-02T10:27:43.157Z,945.5
2017-10-02T10:28:51.141Z,945.4
2017-10-02T10:29:59.365Z,945.4
2017-10-02T10:31:07.537Z,945.4
2017-10-02T10:32:15.402Z,945.3
2017-10-02T10:33:24.751Z,945.3
2017-10-02T10:34:31.586Z,945.4
2017-10-02T10:35:40.702Z,945.4
2017-10-02T10:36:48.825Z,945.3
2017-10-02T10:37:56.790Z,945.4
2017-10-02T10:39:04.880Z,945.4
2017-10-02T10:40:12.961Z,945.4
2017-10-02T10:41:21.048Z,945.4
2017-10-02T10:42:29.254Z,945.4
2017-10-02T10:43:37.274Z,945.4
2017-10-02T10:44:45.309Z,945.4
2017-10-02T10:45:53.481Z,945.4
2017-10-02T10:47:01.476Z,945.3
2017-10-02T10:48:09.617Z,945.4
2017-10-02T10:49:17.824Z,945.4
2017-10-02T10:50:25.738Z,945.3
2017-10-02T10:51:33.822Z,945.3
2017-10-02T10:52:42.318Z,945.3
2017-10-02T10:53:50.050Z,945.3
2017-10-02T10:54:58.080Z,945.2
2017-10-02T10:56:06.165Z,945.3
2017-10-02T10:57:14.254Z,945.3
2017-10-02T10:58:22.509Z,945.3
2017-10-02T10:59:30.504Z,945.3
2017-10-02T11:00:38.510Z,945.3
2017-10-02T11:01:46.648Z,945.4
2017-10-02T11:02:54.858Z,945.4
2017-10-02T11:04:02.762Z,945.4
2017-10-02T11:05:10.904Z,945.4
2017-10-02T11:06:18.935Z,945.4
2017-10-02T11:07:27.226Z,945.4
2017-10-02T11:08:35.107Z,945.3
2017-10-02T11:09:43.370Z,945.3
2017-10-02T11:10:51.513Z,945.3
2017-10-02T11:11:59.542Z,945.3
2017-10-02T11:13:07.630Z,945.3
2017-10-02T11:14:15.728Z,945.2
2017-10-02T11:15:23.807Z,945.2
2017-10-02T11:16:32.033Z,945.2
2017-10-02T11:17:40.027Z,945.1
2017-10-02T11:18:48.061Z,945.1
2017-10-02T11:19:56.142Z,945.1
2017-10-02T11:21:04.325Z,945.0
2017-10-02T11:22:12.444Z,945.0
2017-10-02T11:23:20.409Z,945.0
2017-10-02T11:24:28.665Z,945.0
2017-10-02T11:25:36.669Z,945.1
2017-10-02T11:26:44.664Z,945.1
2017-10-02T11:27:52.808Z,945.1
2017-10-02T11:29:00.855Z,945.1
2017-10-02T11:30:08.944Z,945.1
2017-10-02T11:31:17.035Z,945.1
2017-10-02T11:32:25.110Z,945.1
2017-10-02T11:33:33.250Z,945.1
2017-10-02T11:34:41.279Z,945.1
2017-10-02T11:35:49.365Z,945.1
2017-10-02T11:36:57.451Z,945.1
2017-10-02T11:38:05.538Z,945.1
2017-10-02T11:39:13.745Z,945.0
2017-10-02T11:40:21.712Z,945.0
2017-10-02T11:41:29.796Z,945.0
2017-10-02T11:42:37.882Z,945.0
2017-10-02T11:43:45.968Z,945.0
2017-10-02T11:44:54.110Z,945.0
2017-10-02T11:46:02.891Z,945.0
2017-10-02T11:47:10.945Z,945.0
2017-10-02T11:48:19.029Z,945.0
2017-10-02T11:49:27.239Z,945.0
2017-10-02T11:50:35.258Z,945.0
2017-10-02T11:51:43.289Z,945.0
2017-10-02T11:52:51.378Z,944.9
2017-10-02T11:53:59.459Z,944.9
2017-10-02T11:55:07.589Z,944.8
2017-10-02T11:56:15.751Z,944.8
2017-10-02T11:57:23.728Z,944.8
2017-10-02T11:58:31.811Z,944.8
2017-10-02T11:59:39.927Z,944.8
2017-10-02T12:00:47.982Z,944.8
2017-10-02T12:01:56.130Z,944.9
2017-10-02T12:03:04.170Z,944.9
2017-10-02T12:04:12.373Z,944.9
2017-10-02T12:05:20.462Z,944.8
2017-10-02T12:06:28.425Z,944.8
2017-10-02T12:07:36.574Z,944.7
2017-10-02T12:08:44.603Z,944.7
2017-10-02T12:09:52.682Z,944.7
2017-10-02T12:11:00.775Z,944.7
2017-10-02T12:12:08.861Z,944.7
2017-10-02T12:13:17.201Z,944.7
2017-10-02T12:14:25.032Z,944.7
2017-10-02T12:15:33.118Z,944.7
2017-10-02T12:16:41.205Z,944.7
2017-10-02T12:17:49.288Z,944.7
2017-10-02T12:18:57.431Z,944.7
2017-10-02T12:20:05.465Z,944.7
2017-10-02T12:21:13.606Z,944.7
2017-10-02T12:22:21.823Z,944.7
2017-10-02T12:23:29.722Z,944.7
2017-10-02T12:24:37.860Z,944.7
2017-10-02T12:25:45.889Z,944.6
2017-10-02T12:26:54.178Z,944.7
2017-10-02T12:28:02.067Z,944.7
2017-10-02T12:29:10.146Z,944.7
2017-10-02T12:30:18.289Z,944.8
2017-10-02T12:31:26.317Z,944.7
2017-10-02T12:32:34.406Z,944.8
2017-10-02T12:33:42.498Z,944.7
2017-10-02T12:34:50.614Z,944.6
2017-10-02T12:35:58.944Z,944.6
2017-10-02T12:37:07.437Z,944.6
2017-10-02T12:38:14.832Z,944.6
2017-10-02T12:39:22.917Z,944.5
2017-10-02T12:40:31.003Z,944.6
2017-10-02T12:41:39.146Z,944.5
2017-10-02T12:42:47.175Z,944.5
2017-10-02T12:43:55.262Z,944.5
2017-10-02T12:45:03.345Z,944.5
2017-10-02T12:46:11.466Z,944.5
2017-10-02T12:47:19.638Z,944.5
2017-10-02T12:48:27.604Z,944.5
2017-10-02T12:49:35.691Z,944.5
2017-10-02T12:50:43.909Z,944.5
2017-10-02T12:51:51.862Z,944.5
2017-10-02T12:53:00.070Z,944.5
2017-10-02T12:54:08.036Z,944.6
2017-10-02T12:55:16.243Z,944.6
2017-10-02T12:56:24.206Z,944.5
2017-10-02T12:57:32.291Z,944.6
2017-10-02T12:58:40.499Z,944.6
2017-10-02T12:59:48.568Z,944.7
2017-10-02T13:00:56.554Z,944.7
2017-10-02T13:02:04.638Z,944.7
2017-10-02T13:03:12.723Z,944.7
2017-10-02T13:04:21.047Z,944.7
2017-10-02T13:05:28.897Z,944.7
2017-10-02T13:06:36.981Z,944.7
2017-10-02T13:07:45.065Z,944.6
2017-10-02T13:08:53.315Z,944.6
2017-10-02T13:10:02.092Z,944.7
2017-10-02T13:11:09.387Z,944.7
2017-10-02T13:12:17.411Z,944.7
2017-10-02T13:13:25.608Z,944.7
2017-10-02T13:14:33.583Z,944.6
2017-10-02T13:15:41.726Z,944.6
2017-10-02T13:16:49.754Z,944.6
2017-10-02T13:17:57.840Z,944.5
2017-10-02T13:19:05.927Z,944.6
2017-10-02T13:20:14.012Z,944.5
2017-10-02T13:21:22.153Z,944.5
2017-10-02T13:22:30.184Z,944.6
2017-10-02T13:23:38.272Z,944.5
2017-10-02T13:24:46.477Z,944.6
2017-10-02T13:25:54.453Z,944.7
2017-10-02T13:27:02.585Z,944.6
2017-10-02T13:28:10.629Z,944.6
2017-10-02T13:29:18.700Z,944.6
2017-10-02T13:30:26.786Z,944.6
2017-10-02T13:31:34.975Z,944.52
2017-10-02T13:32:43.024Z,944.5
2017-10-02T13:33:51.054Z,944.5
2017-10-02T13:34:59.140Z,944.6
2017-10-02T13:36:07.328Z,944.5
2017-10-02T13:37:15.335Z,944.5
2017-10-02T13:38:23.527Z,944.5
2017-10-02T13:39:31.494Z,944.6
2017-10-02T13:40:39.875Z,944.6
2017-10-02T13:41:47.910Z,944.6
2017-10-02T13:42:56.568Z,944.5
2017-10-02T13:44:05.117Z,944.5
2017-10-02T13:45:12.170Z,944.5
2017-10-02T13:46:20.256Z,944.5
2017-10-02T13:47:28.342Z,944.4
2017-10-02T13:48:36.438Z,944.5
2017-10-02T13:49:44.583Z,944.4
2017-10-02T13:50:52.614Z,944.4
2017-10-02T13:52:00.701Z,944.4
2017-10-02T13:53:08.789Z,944.4
2017-10-02T13:54:16.887Z,944.4
2017-10-02T13:55:25.089Z,944.4
2017-10-02T13:56:33.105Z,944.3
2017-10-02T13:57:41.785Z,944.3
2017-10-02T13:58:49.431Z,944.3
2017-10-02T13:59:57.517Z,944.3
2017-10-02T14:01:05.723Z,944.2
2017-10-02T14:02:13.843Z,944.3
2017-10-02T14:03:21.775Z,944.3
2017-10-02T14:04:29.861Z,944.3
2017-10-02T14:05:37.950Z,944.3
2017-10-02T14:06:46.261Z,944.3
2017-10-02T14:07:54.130Z,944.3
2017-10-02T14:09:02.216Z,944.3
2017-10-02T14:10:10.300Z,944.3
2017-10-02T14:11:18.381Z,944.2
2017-10-02T14:12:26.679Z,944.2
2017-10-02T14:13:34.566Z,944.2
2017-10-02T14:14:42.651Z,944.2
2017-10-02T14:15:50.738Z,944.2
2017-10-02T14:16:59.002Z,944.2
2017-10-02T14:18:07.032Z,944.2
2017-10-02T14:19:15.008Z,944.1
2017-10-02T14:20:23.093Z,944.1
2017-10-02T14:21:31.180Z,944.1
2017-10-02T14:22:39.268Z,944.1
2017-10-02T14:23:47.475Z,944.0
2017-10-02T14:24:55.545Z,944.1
2017-10-02T14:26:03.527Z,944.0
2017-10-02T14:27:11.614Z,944.0
2017-10-02T14:28:19.755Z,944.0
2017-10-02T14:29:27.905Z,944.0
2017-10-02T14:30:35.872Z,943.9
2017-10-02T14:31:43.958Z,944.0
2017-10-02T14:32:52.047Z,944.0
2017-10-02T14:34:00.132Z,944.0
2017-10-02T14:35:08.320Z,943.9
2017-10-02T14:36:16.308Z,944.0
2017-10-02T14:37:24.393Z,943.9